sensor_id;sensor_type;location;lat;lon;timestamp;P1;durP1;ratioP1;P2;durP2;ratioP2
29302;SDS011;60019;45.556;12.004;2023-12-20T00:05:10;59.28;;;41.95;;
29302;SDS011;60019;45.556;12.004;2023-12-20T00:11:12;58.85;;;40.13;;
29302;SDS011;60019;45.556;12.004;2023-12-20T00:17:14;64.70;;;40.80;;
29302;SDS011;60019;45.556;12.004;2023-12-20T00:23:15;56.10;;;39.53;;
29302;SDS011;60019;45.556;12.004;2023-12-20T00:29:17;57.42;;;41.25;;
29302;SDS011;60019;45.556;12.004;2023-12-20T00:35:19;61.17;;;41.28;;
29302;SDS011;60019;45.556;12.004;2023-12-20T00:41:21;61.83;;;40.75;;
29302;SDS011;60019;45.556;12.004;2023-12-20T00:47:23;59.28;;;40.38;;
29302;SDS011;60019;45.556;12.004;2023-12-20T00:53:24;61.28;;;40.85;;
29302;SDS011;60019;45.556;12.004;2023-12-20T00:59:26;52.00;;;37.88;;
29302;SDS011;60019;45.556;12.004;2023-12-20T01:05:28;53.47;;;38.10;;
29302;SDS011;60019;45.556;12.004;2023-12-20T01:11:30;57.58;;;38.60;;
29302;SDS011;60019;45.556;12.004;2023-12-20T01:17:31;57.50;;;39.47;;
29302;SDS011;60019;45.556;12.004;2023-12-20T01:23:33;57.03;;;36.75;;
29302;SDS011;60019;45.556;12.004;2023-12-20T01:29:35;55.53;;;37.00;;
29302;SDS011;60019;45.556;12.004;2023-12-20T01:35:37;51.72;;;36.50;;
29302;SDS011;60019;45.556;12.004;2023-12-20T01:41:39;51.38;;;38.25;;
29302;SDS011;60019;45.556;12.004;2023-12-20T01:47:40;57.58;;;39.15;;
29302;SDS011;60019;45.556;12.004;2023-12-20T01:53:42;50.20;;;37.28;;
29302;SDS011;60019;45.556;12.004;2023-12-20T01:59:45;50.38;;;36.50;;
29302;SDS011;60019;45.556;12.004;2023-12-20T02:05:46;59.28;;;38.10;;
29302;SDS011;60019;45.556;12.004;2023-12-20T02:11:49;51.70;;;38.47;;
29302;SDS011;60019;45.556;12.004;2023-12-20T02:17:50;57.88;;;39.47;;
29302;SDS011;60019;45.556;12.004;2023-12-20T02:23:52;49.65;;;37.03;;
29302;SDS011;60019;45.556;12.004;2023-12-20T02:29:54;51.25;;;36.83;;
29302;SDS011;60019;45.556;12.004;2023-12-20T02:35:56;50.72;;;36.20;;
29302;SDS011;60019;45.556;12.004;2023-12-20T02:41:58;55.28;;;35.40;;
29302;SDS011;60019;45.556;12.004;2023-12-20T02:48:00;49.38;;;34.75;;
29302;SDS011;60019;45.556;12.004;2023-12-20T02:54:01;52.80;;;34.90;;
29302;SDS011;60019;45.556;12.004;2023-12-20T03:00:03;48.83;;;35.78;;
29302;SDS011;60019;45.556;12.004;2023-12-20T03:06:05;47.25;;;33.88;;
29302;SDS011;60019;45.556;12.004;2023-12-20T03:12:07;48.72;;;34.28;;
29302;SDS011;60019;45.556;12.004;2023-12-20T03:18:09;49.40;;;33.17;;
29302;SDS011;60019;45.556;12.004;2023-12-20T03:24:11;44.42;;;32.67;;
29302;SDS011;60019;45.556;12.004;2023-12-20T03:30:13;46.28;;;34.20;;
29302;SDS011;60019;45.556;12.004;2023-12-20T03:36:15;47.83;;;32.45;;
29302;SDS011;60019;45.556;12.004;2023-12-20T03:42:16;42.45;;;31.02;;
29302;SDS011;60019;45.556;12.004;2023-12-20T03:48:18;42.25;;;31.77;;
29302;SDS011;60019;45.556;12.004;2023-12-20T03:54:20;46.63;;;30.75;;
29302;SDS011;60019;45.556;12.004;2023-12-20T04:00:22;47.83;;;32.15;;
29302;SDS011;60019;45.556;12.004;2023-12-20T04:06:23;46.10;;;30.90;;
29302;SDS011;60019;45.556;12.004;2023-12-20T04:12:26;42.65;;;30.27;;
29302;SDS011;60019;45.556;12.004;2023-12-20T04:18:28;44.75;;;31.20;;
29302;SDS011;60019;45.556;12.004;2023-12-20T04:24:30;40.28;;;28.40;;
29302;SDS011;60019;45.556;12.004;2023-12-20T04:30:33;38.78;;;28.10;;
29302;SDS011;60019;45.556;12.004;2023-12-20T04:36:35;39.72;;;28.63;;
29302;SDS011;60019;45.556;12.004;2023-12-20T04:42:37;41.03;;;28.67;;
29302;SDS011;60019;45.556;12.004;2023-12-20T04:48:39;36.30;;;26.58;;
29302;SDS011;60019;45.556;12.004;2023-12-20T04:54:41;36.78;;;26.88;;
29302;SDS011;60019;45.556;12.004;2023-12-20T05:00:43;39.38;;;26.35;;
29302;SDS011;60019;45.556;12.004;2023-12-20T05:06:44;34.58;;;25.42;;
29302;SDS011;60019;45.556;12.004;2023-12-20T05:12:46;35.63;;;24.98;;
29302;SDS011;60019;45.556;12.004;2023-12-20T05:18:48;33.58;;;24.88;;
29302;SDS011;60019;45.556;12.004;2023-12-20T05:24:53;38.65;;;25.85;;
29302;SDS011;60019;45.556;12.004;2023-12-20T05:30:55;31.92;;;23.20;;
29302;SDS011;60019;45.556;12.004;2023-12-20T05:37:00;33.67;;;24.58;;
29302;SDS011;60019;45.556;12.004;2023-12-20T05:43:02;36.88;;;26.00;;
29302;SDS011;60019;45.556;12.004;2023-12-20T05:49:04;33.47;;;24.25;;
29302;SDS011;60019;45.556;12.004;2023-12-20T05:55:06;31.90;;;24.25;;
29302;SDS011;60019;45.556;12.004;2023-12-20T06:01:08;35.28;;;22.88;;
29302;SDS011;60019;45.556;12.004;2023-12-20T06:07:13;34.92;;;25.15;;
29302;SDS011;60019;45.556;12.004;2023-12-20T06:13:15;30.52;;;23.35;;
29302;SDS011;60019;45.556;12.004;2023-12-20T06:19:17;34.08;;;23.20;;
29302;SDS011;60019;45.556;12.004;2023-12-20T06:25:19;35.83;;;24.02;;
29302;SDS011;60019;45.556;12.004;2023-12-20T06:31:20;31.58;;;23.77;;
29302;SDS011;60019;45.556;12.004;2023-12-20T06:37:23;33.10;;;23.13;;
29302;SDS011;60019;45.556;12.004;2023-12-20T06:43:24;34.88;;;24.70;;
29302;SDS011;60019;45.556;12.004;2023-12-20T06:49:26;31.77;;;23.33;;
29302;SDS011;60019;45.556;12.004;2023-12-20T06:55:28;30.67;;;23.35;;
29302;SDS011;60019;45.556;12.004;2023-12-20T07:01:31;30.02;;;20.55;;
29302;SDS011;60019;45.556;12.004;2023-12-20T07:07:33;34.22;;;21.83;;
29302;SDS011;60019;45.556;12.004;2023-12-20T07:13:35;36.38;;;22.55;;
29302;SDS011;60019;45.556;12.004;2023-12-20T07:19:37;31.13;;;21.65;;
29302;SDS011;60019;45.556;12.004;2023-12-20T07:25:39;30.77;;;21.90;;
29302;SDS011;60019;45.556;12.004;2023-12-20T07:31:41;31.55;;;21.48;;
29302;SDS011;60019;45.556;12.004;2023-12-20T07:37:43;38.42;;;23.40;;
29302;SDS011;60019;45.556;12.004;2023-12-20T07:43:45;36.88;;;22.13;;
29302;SDS011;60019;45.556;12.004;2023-12-20T07:49:50;30.92;;;21.50;;
29302;SDS011;60019;45.556;12.004;2023-12-20T07:55:52;35.13;;;23.00;;
29302;SDS011;60019;45.556;12.004;2023-12-20T08:01:54;30.25;;;20.48;;
29302;SDS011;60019;45.556;12.004;2023-12-20T08:07:56;31.02;;;21.88;;
29302;SDS011;60019;45.556;12.004;2023-12-20T08:13:58;35.33;;;23.75;;
29302;SDS011;60019;45.556;12.004;2023-12-20T08:20:00;32.00;;;22.63;;
29302;SDS011;60019;45.556;12.004;2023-12-20T08:26:05;32.58;;;22.98;;
29302;SDS011;60019;45.556;12.004;2023-12-20T08:32:07;31.58;;;21.17;;
29302;SDS011;60019;45.556;12.004;2023-12-20T08:38:09;31.50;;;21.30;;
29302;SDS011;60019;45.556;12.004;2023-12-20T08:44:12;36.63;;;22.73;;
29302;SDS011;60019;45.556;12.004;2023-12-20T08:50:15;36.42;;;23.08;;
29302;SDS011;60019;45.556;12.004;2023-12-20T08:56:16;33.03;;;23.25;;
29302;SDS011;60019;45.556;12.004;2023-12-20T09:02:18;36.40;;;22.20;;
29302;SDS011;60019;45.556;12.004;2023-12-20T09:08:20;31.88;;;21.83;;
29302;SDS011;60019;45.556;12.004;2023-12-20T09:14:22;29.95;;;21.27;;
29302;SDS011;60019;45.556;12.004;2023-12-20T09:20:24;28.60;;;20.60;;
29302;SDS011;60019;45.556;12.004;2023-12-20T09:26:26;32.40;;;21.65;;
29302;SDS011;60019;45.556;12.004;2023-12-20T09:32:28;31.15;;;19.27;;
29302;SDS011;60019;45.556;12.004;2023-12-20T09:38:30;28.75;;;19.67;;
29302;SDS011;60019;45.556;12.004;2023-12-20T09:44:33;28.65;;;18.90;;
29302;SDS011;60019;45.556;12.004;2023-12-20T09:50:38;29.95;;;19.42;;
29302;SDS011;60019;45.556;12.004;2023-12-20T09:56:39;25.92;;;17.83;;
29302;SDS011;60019;45.556;12.004;2023-12-20T10:02:45;25.58;;;16.90;;
29302;SDS011;60019;45.556;12.004;2023-12-20T10:08:47;30.17;;;18.48;;
29302;SDS011;60019;45.556;12.004;2023-12-20T10:14:50;23.98;;;16.77;;
29302;SDS011;60019;45.556;12.004;2023-12-20T10:20:52;30.00;;;19.80;;
29302;SDS011;60019;45.556;12.004;2023-12-20T10:27:03;35.47;;;24.40;;
29302;SDS011;60019;45.556;12.004;2023-12-20T10:33:06;31.20;;;21.08;;
29302;SDS011;60019;45.556;12.004;2023-12-20T10:39:11;31.40;;;20.23;;
29302;SDS011;60019;45.556;12.004;2023-12-20T10:45:14;30.38;;;19.77;;
29302;SDS011;60019;45.556;12.004;2023-12-20T10:51:18;26.10;;;17.58;;
29302;SDS011;60019;45.556;12.004;2023-12-20T10:57:20;23.60;;;16.77;;
29302;SDS011;60019;45.556;12.004;2023-12-20T11:03:23;21.90;;;16.23;;
29302;SDS011;60019;45.556;12.004;2023-12-20T11:09:29;21.45;;;14.45;;
29302;SDS011;60019;45.556;12.004;2023-12-20T11:15:33;23.85;;;15.50;;
29302;SDS011;60019;45.556;12.004;2023-12-20T11:21:35;19.75;;;14.50;;
29302;SDS011;60019;45.556;12.004;2023-12-20T11:27:40;23.45;;;15.25;;
29302;SDS011;60019;45.556;12.004;2023-12-20T11:33:43;23.30;;;14.63;;
29302;SDS011;60019;45.556;12.004;2023-12-20T11:39:55;19.33;;;13.30;;
29302;SDS011;60019;45.556;12.004;2023-12-20T11:46:02;18.42;;;12.85;;
29302;SDS011;60019;45.556;12.004;2023-12-20T11:52:05;16.98;;;12.38;;
29302;SDS011;60019;45.556;12.004;2023-12-20T11:58:07;15.93;;;12.00;;
29302;SDS011;60019;45.556;12.004;2023-12-20T12:04:10;16.80;;;11.90;;
29302;SDS011;60019;45.556;12.004;2023-12-20T12:10:12;17.20;;;11.88;;
29302;SDS011;60019;45.556;12.004;2023-12-20T12:16:18;17.85;;;11.07;;
29302;SDS011;60019;45.556;12.004;2023-12-20T12:22:19;16.05;;;10.85;;
29302;SDS011;60019;45.556;12.004;2023-12-20T12:28:27;15.82;;;11.10;;
29302;SDS011;60019;45.556;12.004;2023-12-20T12:34:29;21.30;;;11.95;;
29302;SDS011;60019;45.556;12.004;2023-12-20T12:40:34;17.85;;;11.52;;
29302;SDS011;60019;45.556;12.004;2023-12-20T12:46:39;18.15;;;10.88;;
29302;SDS011;60019;45.556;12.004;2023-12-20T12:52:42;185.50;;;74.88;;
29302;SDS011;60019;45.556;12.004;2023-12-20T12:58:44;38.92;;;20.75;;
29302;SDS011;60019;45.556;12.004;2023-12-20T13:04:46;32.40;;;17.02;;
29302;SDS011;60019;45.556;12.004;2023-12-20T13:10:48;26.20;;;15.48;;
29302;SDS011;60019;45.556;12.004;2023-12-20T13:16:50;22.70;;;13.73;;
29302;SDS011;60019;45.556;12.004;2023-12-20T13:22:52;23.55;;;13.48;;
29302;SDS011;60019;45.556;12.004;2023-12-20T13:28:54;21.85;;;13.90;;
29302;SDS011;60019;45.556;12.004;2023-12-20T13:34:55;22.88;;;14.57;;
29302;SDS011;60019;45.556;12.004;2023-12-20T13:40:57;20.38;;;14.70;;
29302;SDS011;60019;45.556;12.004;2023-12-20T13:46:59;21.40;;;14.32;;
29302;SDS011;60019;45.556;12.004;2023-12-20T13:53:02;23.52;;;14.48;;
29302;SDS011;60019;45.556;12.004;2023-12-20T13:59:05;21.40;;;15.13;;
29302;SDS011;60019;45.556;12.004;2023-12-20T14:05:06;21.60;;;15.27;;
29302;SDS011;60019;45.556;12.004;2023-12-20T14:11:08;25.20;;;15.75;;
29302;SDS011;60019;45.556;12.004;2023-12-20T14:17:10;23.52;;;14.95;;
29302;SDS011;60019;45.556;12.004;2023-12-20T14:23:12;18.63;;;14.23;;
29302;SDS011;60019;45.556;12.004;2023-12-20T14:29:15;34.88;;;19.65;;
29302;SDS011;60019;45.556;12.004;2023-12-20T14:35:17;32.05;;;19.02;;
29302;SDS011;60019;45.556;12.004;2023-12-20T14:41:20;26.95;;;18.33;;
29302;SDS011;60019;45.556;12.004;2023-12-20T14:47:25;26.20;;;16.17;;
29302;SDS011;60019;45.556;12.004;2023-12-20T14:53:27;27.83;;;17.95;;
29302;SDS011;60019;45.556;12.004;2023-12-20T14:59:28;29.35;;;17.55;;
29302;SDS011;60019;45.556;12.004;2023-12-20T15:05:30;25.02;;;17.90;;
29302;SDS011;60019;45.556;12.004;2023-12-20T15:11:32;29.55;;;18.75;;
29302;SDS011;60019;45.556;12.004;2023-12-20T15:17:35;26.38;;;18.02;;
29302;SDS011;60019;45.556;12.004;2023-12-20T15:23:37;24.52;;;16.88;;
29302;SDS011;60019;45.556;12.004;2023-12-20T15:29:39;22.90;;;17.35;;
29302;SDS011;60019;45.556;12.004;2023-12-20T15:35:41;27.02;;;17.30;;
29302;SDS011;60019;45.556;12.004;2023-12-20T15:41:43;28.58;;;17.95;;
29302;SDS011;60019;45.556;12.004;2023-12-20T15:47:44;26.70;;;18.70;;
29302;SDS011;60019;45.556;12.004;2023-12-20T15:53:46;26.95;;;18.73;;
29302;SDS011;60019;45.556;12.004;2023-12-20T15:59:48;28.30;;;19.33;;
29302;SDS011;60019;45.556;12.004;2023-12-20T16:05:52;28.67;;;20.48;;
29302;SDS011;60019;45.556;12.004;2023-12-20T16:11:54;28.10;;;19.58;;
29302;SDS011;60019;45.556;12.004;2023-12-20T16:17:56;28.15;;;19.67;;
29302;SDS011;60019;45.556;12.004;2023-12-20T16:23:59;28.73;;;20.23;;
29302;SDS011;60019;45.556;12.004;2023-12-20T16:30:01;31.17;;;20.83;;
29302;SDS011;60019;45.556;12.004;2023-12-20T16:36:03;27.83;;;20.15;;
29302;SDS011;60019;45.556;12.004;2023-12-20T16:42:05;33.13;;;20.48;;
29302;SDS011;60019;45.556;12.004;2023-12-20T16:48:06;33.30;;;20.13;;
29302;SDS011;60019;45.556;12.004;2023-12-20T16:54:08;30.73;;;19.45;;
29302;SDS011;60019;45.556;12.004;2023-12-20T17:00:10;30.65;;;21.23;;
29302;SDS011;60019;45.556;12.004;2023-12-20T17:06:12;26.67;;;18.92;;
29302;SDS011;60019;45.556;12.004;2023-12-20T17:12:14;23.25;;;17.95;;
29302;SDS011;60019;45.556;12.004;2023-12-20T17:18:16;27.25;;;19.98;;
29302;SDS011;60019;45.556;12.004;2023-12-20T17:24:18;24.80;;;17.33;;
29302;SDS011;60019;45.556;12.004;2023-12-20T17:30:19;27.45;;;18.75;;
29302;SDS011;60019;45.556;12.004;2023-12-20T17:36:21;30.45;;;19.42;;
29302;SDS011;60019;45.556;12.004;2023-12-20T17:42:23;27.73;;;18.58;;
29302;SDS011;60019;45.556;12.004;2023-12-20T17:48:25;25.38;;;17.63;;
29302;SDS011;60019;45.556;12.004;2023-12-20T17:54:27;27.05;;;17.98;;
29302;SDS011;60019;45.556;12.004;2023-12-20T18:00:31;25.20;;;17.90;;
29302;SDS011;60019;45.556;12.004;2023-12-20T18:06:34;20.20;;;15.23;;
29302;SDS011;60019;45.556;12.004;2023-12-20T18:12:36;26.23;;;16.85;;
29302;SDS011;60019;45.556;12.004;2023-12-20T18:18:38;23.85;;;16.08;;
29302;SDS011;60019;45.556;12.004;2023-12-20T18:24:40;21.42;;;14.60;;
29302;SDS011;60019;45.556;12.004;2023-12-20T18:30:42;23.67;;;15.65;;
29302;SDS011;60019;45.556;12.004;2023-12-20T18:36:44;23.67;;;15.25;;
29302;SDS011;60019;45.556;12.004;2023-12-20T18:42:46;24.25;;;15.85;;
29302;SDS011;60019;45.556;12.004;2023-12-20T18:48:48;19.88;;;15.45;;
29302;SDS011;60019;45.556;12.004;2023-12-20T18:54:51;23.00;;;15.38;;
29302;SDS011;60019;45.556;12.004;2023-12-20T19:00:53;29.27;;;18.58;;
29302;SDS011;60019;45.556;12.004;2023-12-20T19:06:55;27.42;;;18.73;;
29302;SDS011;60019;45.556;12.004;2023-12-20T19:12:59;27.48;;;19.33;;
29302;SDS011;60019;45.556;12.004;2023-12-20T19:19:02;25.67;;;18.23;;
29302;SDS011;60019;45.556;12.004;2023-12-20T19:25:04;33.47;;;18.58;;
29302;SDS011;60019;45.556;12.004;2023-12-20T19:31:06;29.83;;;18.08;;
29302;SDS011;60019;45.556;12.004;2023-12-20T19:37:10;23.50;;;16.38;;
29302;SDS011;60019;45.556;12.004;2023-12-20T19:43:12;24.13;;;17.42;;
29302;SDS011;60019;45.556;12.004;2023-12-20T19:49:14;25.70;;;18.13;;
29302;SDS011;60019;45.556;12.004;2023-12-20T19:55:16;29.92;;;19.77;;
29302;SDS011;60019;45.556;12.004;2023-12-20T20:01:18;35.97;;;21.73;;
29302;SDS011;60019;45.556;12.004;2023-12-20T20:07:20;32.75;;;20.02;;
29302;SDS011;60019;45.556;12.004;2023-12-20T20:13:23;34.28;;;22.27;;
29302;SDS011;60019;45.556;12.004;2023-12-20T20:19:25;28.20;;;18.63;;
29302;SDS011;60019;45.556;12.004;2023-12-20T20:25:27;30.33;;;19.67;;
29302;SDS011;60019;45.556;12.004;2023-12-20T20:31:29;37.05;;;18.77;;
29302;SDS011;60019;45.556;12.004;2023-12-20T20:37:34;31.20;;;20.35;;
29302;SDS011;60019;45.556;12.004;2023-12-20T20:43:36;30.92;;;19.20;;
29302;SDS011;60019;45.556;12.004;2023-12-20T20:49:38;29.80;;;20.73;;
29302;SDS011;60019;45.556;12.004;2023-12-20T20:55:40;36.92;;;21.58;;
29302;SDS011;60019;45.556;12.004;2023-12-20T21:01:42;91.03;;;44.95;;
29302;SDS011;60019;45.556;12.004;2023-12-20T21:07:43;125.43;;;58.97;;
29302;SDS011;60019;45.556;12.004;2023-12-20T21:13:45;88.50;;;44.25;;
29302;SDS011;60019;45.556;12.004;2023-12-20T21:19:48;65.70;;;35.00;;
29302;SDS011;60019;45.556;12.004;2023-12-20T21:25:50;53.95;;;29.42;;
29302;SDS011;60019;45.556;12.004;2023-12-20T21:31:52;49.88;;;25.88;;
29302;SDS011;60019;45.556;12.004;2023-12-20T21:37:54;40.45;;;23.40;;
29302;SDS011;60019;45.556;12.004;2023-12-20T21:43:55;35.50;;;20.30;;
29302;SDS011;60019;45.556;12.004;2023-12-20T21:49:57;32.53;;;20.50;;
29302;SDS011;60019;45.556;12.004;2023-12-20T21:55:59;34.97;;;19.92;;
29302;SDS011;60019;45.556;12.004;2023-12-20T22:02:01;29.92;;;17.17;;
29302;SDS011;60019;45.556;12.004;2023-12-20T22:08:03;29.52;;;17.20;;
29302;SDS011;60019;45.556;12.004;2023-12-20T22:14:05;24.02;;;16.30;;
29302;SDS011;60019;45.556;12.004;2023-12-20T22:20:08;22.23;;;15.75;;
29302;SDS011;60019;45.556;12.004;2023-12-20T22:26:10;26.30;;;18.08;;
29302;SDS011;60019;45.556;12.004;2023-12-20T22:32:11;30.48;;;19.77;;
29302;SDS011;60019;45.556;12.004;2023-12-20T22:38:14;25.63;;;17.17;;
29302;SDS011;60019;45.556;12.004;2023-12-20T22:44:16;25.92;;;17.20;;
29302;SDS011;60019;45.556;12.004;2023-12-20T22:50:18;23.88;;;16.02;;
29302;SDS011;60019;45.556;12.004;2023-12-20T22:56:20;25.20;;;15.32;;
29302;SDS011;60019;45.556;12.004;2023-12-20T23:02:22;21.85;;;15.77;;
29302;SDS011;60019;45.556;12.004;2023-12-20T23:08:24;22.00;;;14.50;;
29302;SDS011;60019;45.556;12.004;2023-12-20T23:14:26;22.77;;;14.93;;
29302;SDS011;60019;45.556;12.004;2023-12-20T23:20:27;24.27;;;14.82;;
29302;SDS011;60019;45.556;12.004;2023-12-20T23:26:29;23.15;;;15.07;;
29302;SDS011;60019;45.556;12.004;2023-12-20T23:32:31;53.72;;;29.75;;
29302;SDS011;60019;45.556;12.004;2023-12-20T23:38:34;66.80;;;34.35;;
29302;SDS011;60019;45.556;12.004;2023-12-20T23:44:36;51.00;;;28.58;;
29302;SDS011;60019;45.556;12.004;2023-12-20T23:50:38;43.10;;;23.48;;
29302;SDS011;60019;45.556;12.004;2023-12-20T23:56:39;34.58;;;21.50;;
